createdAt,value
2022-10-11T00:02:57.944Z,100109.00
2022-10-11T00:08:00.253Z,100064.88
2022-10-11T00:13:02.606Z,100083.06
2022-10-11T00:18:15.105Z,100084.06
2022-10-11T00:23:17.461Z,99985.09
2022-10-11T00:28:19.631Z,100062.53
2022-10-11T00:33:21.919Z,100038.66
2022-10-11T00:38:24.064Z,99982.94
2022-10-11T00:43:28.449Z,99971.56
2022-10-11T00:48:45.688Z,100059.63
2022-10-11T00:53:49.232Z,100072.38
2022-10-11T00:58:52.175Z,100056.38
2022-10-11T01:03:54.742Z,100084.47
2022-10-11T01:08:57.052Z,100041.00
2022-10-11T01:14:21.852Z,100115.69
2022-10-11T01:19:52.994Z,100112.44
2022-10-11T01:25:18.494Z,100085.72
2022-10-11T01:30:32.855Z,100096.69
2022-10-11T01:36:01.048Z,100068.75
2022-10-11T01:41:22.366Z,100014.72
2022-10-11T01:46:35.342Z,100063.59
2022-10-11T01:51:53.935Z,100107.97
2022-10-11T01:57:18.525Z,100106.00
2022-10-11T02:02:33.088Z,100108.50
2022-10-11T02:07:56.793Z,100110.22
2022-10-11T02:13:33.804Z,100098.16
2022-10-11T02:18:48.550Z,100098.78
2022-10-11T02:24:04.844Z,100099.59
2022-10-11T02:29:18.315Z,100072.88
2022-10-11T02:34:40.679Z,100099.50
2022-10-11T02:40:04.250Z,100064.91
2022-10-11T02:45:20.476Z,100038.16
2022-10-11T02:50:33.069Z,99969.91
2022-10-11T02:55:45.932Z,100045.50
2022-10-11T03:00:58.408Z,100034.91
2022-10-11T03:06:11.008Z,100038.31
2022-10-11T03:11:23.494Z,100009.13
2022-10-11T03:16:35.949Z,100107.81
2022-10-11T03:21:48.429Z,100086.63
2022-10-11T03:27:00.829Z,100063.69
2022-10-11T03:32:13.219Z,100041.44
2022-10-11T03:37:25.812Z,100070.59
2022-10-11T03:42:40.048Z,100081.41
2022-10-11T03:47:52.462Z,100035.19
2022-10-11T03:53:05.692Z,100087.19
2022-10-11T03:58:18.097Z,100095.75
2022-10-11T04:03:31.134Z,100070.28
2022-10-11T04:08:43.530Z,99996.09
2022-10-11T04:13:56.043Z,100026.78
2022-10-11T04:19:10.786Z,100045.97
2022-10-11T04:24:23.364Z,100041.44
2022-10-11T04:29:35.768Z,100070.75
2022-10-11T04:34:48.218Z,100061.09
2022-10-11T04:40:03.407Z,100058.53
2022-10-11T04:45:15.974Z,100038.41
2022-10-11T04:50:28.409Z,100038.72
2022-10-11T04:55:43.097Z,100062.41
2022-10-11T05:01:03.205Z,100041.28
2022-10-11T05:06:15.963Z,100033.28
2022-10-11T05:11:28.475Z,100086.44
2022-10-11T05:16:40.868Z,100043.34
2022-10-11T05:21:55.161Z,100050.66
2022-10-11T05:27:11.922Z,100055.66
2022-10-11T05:32:27.861Z,100055.88
2022-10-11T05:37:40.663Z,99988.22
2022-10-11T05:42:53.163Z,100050.56
2022-10-11T05:48:06.703Z,99982.19
2022-10-11T05:53:19.204Z,100009.06
2022-10-11T05:58:31.714Z,100020.91
2022-10-11T06:03:44.235Z,100036.34
2022-10-11T06:08:56.744Z,100071.16
2022-10-11T06:14:10.033Z,100053.56
2022-10-11T06:19:22.516Z,100009.97
2022-10-11T06:24:34.916Z,100020.44
2022-10-11T06:29:47.407Z,100052.69
2022-10-11T06:34:59.827Z,100024.47
2022-10-11T06:40:12.595Z,99983.91
2022-10-11T06:45:25.097Z,100021.13
2022-10-11T06:50:58.569Z,99956.00
2022-10-11T06:56:13.008Z,100032.75
2022-10-11T07:01:26.261Z,100010.09
2022-10-11T07:06:40.495Z,100005.13
2022-10-11T07:11:53.047Z,100003.47
2022-10-11T07:17:05.778Z,99968.53
2022-10-11T07:22:18.276Z,100030.75
2022-10-11T07:27:30.697Z,100039.38
2022-10-11T07:32:43.263Z,99995.13
2022-10-11T07:37:55.689Z,99964.75
2022-10-11T07:43:08.128Z,100020.56
2022-10-11T07:48:20.712Z,100016.53
2022-10-11T07:53:33.304Z,99997.72
2022-10-11T07:58:53.465Z,99875.31
2022-10-11T08:04:06.064Z,99940.50
2022-10-11T08:09:18.476Z,99988.31
2022-10-11T08:14:30.895Z,99960.56
2022-10-11T08:19:43.384Z,99966.97
2022-10-11T08:24:56.096Z,99983.97
2022-10-11T08:30:09.569Z,99947.44
2022-10-11T08:35:22.045Z,99961.66
2022-10-11T08:40:35.483Z,99940.78
2022-10-11T08:45:53.515Z,99951.56
2022-10-11T08:51:14.142Z,99926.31
2022-10-11T08:56:27.046Z,99925.69
2022-10-11T09:02:05.297Z,99904.03
2022-10-11T09:07:35.582Z,99936.41
2022-10-11T09:13:06.203Z,99953.19
2022-10-11T09:18:21.697Z,99944.53
2022-10-11T09:23:37.107Z,99936.75
2022-10-11T09:29:07.156Z,99845.88
2022-10-11T09:34:19.588Z,99923.94
2022-10-11T09:39:32.071Z,99920.44
2022-10-11T09:44:37.330Z,99902.06
2022-10-11T09:49:48.122Z,99909.13
2022-10-11T09:54:56.767Z,99835.66
2022-10-11T10:00:27.296Z,99867.22
2022-10-11T10:05:35.819Z,99781.50
2022-10-11T10:10:41.198Z,99890.13
2022-10-11T10:15:46.417Z,99877.09
2022-10-11T10:20:56.285Z,99879.81
2022-10-11T10:26:17.813Z,99851.03
2022-10-11T10:31:23.303Z,99857.19
2022-10-11T10:36:34.612Z,99832.78
2022-10-11T10:41:36.996Z,99811.78
2022-10-11T10:46:39.061Z,99851.22
2022-10-11T10:51:58.016Z,99846.03
2022-10-11T10:57:03.485Z,99808.44
2022-10-11T11:02:40.839Z,99843.47
2022-10-11T11:08:26.959Z,99831.31
2022-10-11T11:14:03.009Z,99794.59
2022-10-11T11:19:39.388Z,99820.88
2022-10-11T11:24:56.807Z,99814.78
2022-10-11T11:30:17.500Z,99809.53
2022-10-11T11:35:31.089Z,99806.06
2022-10-11T11:40:52.393Z,99783.38
2022-10-11T11:45:58.482Z,99686.41
2022-10-11T11:51:11.595Z,99743.19
2022-10-11T11:56:35.576Z,99778.25
2022-10-11T12:01:43.258Z,99767.78
2022-10-11T12:07:11.123Z,99754.69
2022-10-11T12:12:26.067Z,99750.31
2022-10-11T12:17:29.178Z,99740.75
2022-10-11T12:22:33.663Z,99759.94
2022-10-11T12:27:44.498Z,99723.31
2022-10-11T12:32:50.309Z,99676.94
2022-10-11T12:37:52.639Z,99718.00
2022-10-11T12:43:15.013Z,99745.19
2022-10-11T12:48:33.150Z,99741.69
2022-10-11T12:54:07.892Z,99736.47
2022-10-11T12:59:18.798Z,99705.91
2022-10-11T13:04:32.612Z,99720.75
2022-10-11T13:09:40.092Z,99689.31
2022-10-11T13:15:07.244Z,99668.31
2022-10-11T13:20:15.614Z,99710.28
2022-10-11T13:25:23.757Z,99640.38
2022-10-11T13:30:32.534Z,99468.50
2022-10-11T13:35:40.078Z,99694.47
2022-10-11T13:40:42.406Z,99450.03
2022-10-11T13:45:44.615Z,99582.72
2022-10-11T13:51:25.351Z,99554.81
2022-10-11T13:56:31.067Z,99691.78
2022-10-11T14:01:41.397Z,99652.47
2022-10-11T14:06:56.758Z,99644.56
2022-10-11T14:12:26.981Z,99701.31
2022-10-11T14:17:39.733Z,99701.31
2022-10-11T14:22:42.168Z,99671.44
2022-10-11T14:27:44.589Z,99685.31
2022-10-11T14:32:48.732Z,99697.41
2022-10-11T14:37:54.639Z,99668.41
2022-10-11T14:42:59.586Z,99676.25
2022-10-11T14:48:01.764Z,99662.13
2022-10-11T14:53:05.995Z,99663.72
2022-10-11T14:58:10.230Z,99717.78
2022-10-11T15:03:12.614Z,99702.66
2022-10-11T15:08:18.031Z,99670.16
2022-10-11T15:13:23.048Z,99710.25
2022-10-11T15:18:25.395Z,99702.16
2022-10-11T15:23:29.945Z,99704.59
2022-10-11T15:28:33.525Z,99639.69
2022-10-11T15:33:36.447Z,99628.03
2022-10-11T15:38:39.290Z,99738.16
2022-10-11T15:43:44.101Z,99765.78
2022-10-11T15:48:50.569Z,99284.31
2022-10-11T15:53:53.964Z,99656.00
2022-10-11T15:58:57.024Z,99424.09
2022-10-11T16:04:00.221Z,99586.75
2022-10-11T16:09:03.270Z,99737.97
2022-10-11T16:14:06.364Z,99419.75
2022-10-11T16:19:08.601Z,99678.94
2022-10-11T16:24:10.809Z,99599.13
2022-10-11T16:29:15.176Z,99711.00
2022-10-11T16:34:17.755Z,99734.63
2022-10-11T16:39:20.309Z,99723.22
2022-10-11T16:44:28.056Z,99645.00
2022-10-11T16:49:30.487Z,99724.63
2022-10-11T16:54:32.872Z,99670.09
2022-10-11T16:59:35.240Z,99700.72
2022-10-11T17:04:37.474Z,99670.69
2022-10-11T17:09:44.007Z,99696.88
2022-10-11T17:14:46.822Z,99635.38
2022-10-11T17:19:49.347Z,99624.72
2022-10-11T17:24:51.601Z,99684.94
2022-10-11T17:29:54.071Z,99675.06
2022-10-11T17:34:57.561Z,99674.16
2022-10-11T17:40:02.429Z,99696.72
2022-10-11T17:45:05.881Z,99641.47
2022-10-11T17:50:08.307Z,99650.16
2022-10-11T17:55:10.615Z,99668.47
2022-10-11T18:00:13.544Z,99650.72
2022-10-11T18:05:17.018Z,99659.41
2022-10-11T18:10:22.731Z,99629.53
2022-10-11T18:15:24.961Z,99639.91
2022-10-11T18:20:27.317Z,99587.97
2022-10-11T18:25:29.801Z,99665.00
2022-10-11T18:30:31.970Z,99659.56
2022-10-11T18:35:34.292Z,99646.28
2022-10-11T18:40:43.441Z,99650.69
2022-10-11T18:45:51.343Z,99611.84
2022-10-11T18:51:09.662Z,99611.16
2022-10-11T18:56:15.476Z,99638.19
2022-10-11T19:01:25.723Z,99615.16
2022-10-11T19:06:34.727Z,99640.47
2022-10-11T19:11:44.498Z,99653.50
2022-10-11T19:16:59.696Z,99612.13
2022-10-11T19:22:03.634Z,99610.34
2022-10-11T19:27:05.839Z,99629.63
2022-10-11T19:32:10.766Z,99581.41
2022-10-11T19:37:13.649Z,99566.22
2022-10-11T19:42:15.872Z,99558.19
2022-10-11T19:47:21.160Z,99574.72
2022-10-11T19:52:23.412Z,99573.63
2022-10-11T19:57:25.539Z,99535.75
2022-10-11T20:02:28.896Z,99646.06
2022-10-11T20:07:31.357Z,99621.47
2022-10-11T20:12:34.523Z,99632.66
2022-10-11T20:17:48.916Z,99613.38
2022-10-11T20:22:51.360Z,99616.75
2022-10-11T20:27:56.667Z,99575.44
2022-10-11T20:32:58.919Z,99598.16
2022-10-11T20:38:01.296Z,99570.84
2022-10-11T20:43:03.473Z,99579.34
2022-10-11T20:48:05.635Z,99516.69
2022-10-11T20:53:07.886Z,99395.75
2022-10-11T20:58:12.591Z,99566.53
2022-10-11T21:03:15.292Z,99560.91
2022-10-11T21:08:17.504Z,99609.09
2022-10-11T21:13:19.804Z,99558.78
2022-10-11T21:18:22.015Z,99535.94
2022-10-11T21:23:24.222Z,99584.88
2022-10-11T21:28:26.481Z,99483.94
2022-10-11T21:33:30.327Z,99537.38
2022-10-11T21:38:32.867Z,99584.50
2022-10-11T21:43:36.337Z,99615.88
2022-10-11T21:48:39.009Z,99595.56
2022-10-11T21:53:41.321Z,99553.19
2022-10-11T21:58:43.488Z,99530.38
2022-10-11T22:03:46.336Z,99611.13
2022-10-11T22:08:50.151Z,99579.28
2022-10-11T22:13:52.315Z,99544.13
2022-10-11T22:18:54.762Z,99529.41
2022-10-11T22:23:56.943Z,99562.41
2022-10-11T22:28:59.957Z,99585.25
2022-10-11T22:34:02.188Z,99512.25
2022-10-11T22:39:08.091Z,99500.72
2022-10-11T22:44:11.263Z,99569.50
2022-10-11T22:49:13.453Z,99476.22
2022-10-11T22:54:15.937Z,99549.50
2022-10-11T22:59:18.454Z,99496.81
2022-10-11T23:04:21.124Z,99413.72
2022-10-11T23:09:26.812Z,99538.03
2022-10-11T23:14:28.974Z,99580.91
2022-10-11T23:19:31.206Z,99551.94
2022-10-11T23:24:33.525Z,99579.06
2022-10-11T23:29:35.853Z,99534.22
2022-10-11T23:34:38.418Z,99536.75
2022-10-11T23:39:40.604Z,99451.53
2022-10-11T23:44:42.699Z,99524.41
2022-10-11T23:49:44.854Z,99544.53
2022-10-11T23:54:47.031Z,99531.19
2022-10-11T23:59:49.282Z,99521.78
